F/V Cote D'ambre — FPEY — position and weather

sailwx.info

Track history (hours):
 
Tides and Currents Weather Stations Pressure Air Temp Water Temp Dewpoint Dewpoint Depression Visibility Wind Speed Wind Dir Waves Ship Positions

F/V Cote D'ambre

Last reported at 2016-Sep-23 16:33 UTC. Time now 2016-Sep-25 14:03 UTC.
Position N 47°42' W 003°23'.

Length 16 m; draft 4 m.

Type: Fishing. MMSI: 227128800.

Date/timePositionNaut miles runAvg speedWind from/ knotsBaromVisibWave heightAir tempDewpointWater temp
2016-Sep-23 16:33N 47°42' W 003°23'9 8.5
2016-Sep-23 15:33N 47°37' W 003°34'18 8.9
2016-Sep-23 13:33N 47°22' W 003°47'5 0.7
2016-Sep-23 06:19N 47°18' W 003°52'1 0.8
2016-Sep-23 04:33N 47°19' W 003°50'4 3.7
2016-Sep-23 03:33N 47°15' W 003°50'35 2.3
2016-Sep-22 12:33N 47°44' W 003°22'0 0.0
2016-Sep-22 04:32N 47°44' W 003°22'0 0.0
2016-Sep-22 03:32N 47°44' W 003°22'4 1.3
2016-Sep-22 00:34N 47°40' W 003°22'7 6.9
2016-Sep-21 23:34N 47°33' W 003°25'8 7.5
2016-Sep-21 22:34N 47°29' W 003°34'14 1.0
2016-Sep-21 09:28N 47°31' W 003°54'1 0.9
2016-Sep-21 08:18N 47°30' W 003°54'19 4.0
2016-Sep-21 03:33N 47°40' W 003°29'6 5.7
2016-Sep-21 02:28N 47°44' W 003°22'26 2.2
2016-Sep-20 14:32N 47°31' W 003°55'2 1.5
2016-Sep-20 13:34N 47°30' W 003°55'1 0.2
2016-Sep-20 10:33N 47°30' W 003°55'3 1.4
2016-Sep-20 08:34N 47°31' W 003°52'3 2.5
2016-Sep-20 07:33N 47°30' W 003°55'20 4.0
2016-Sep-20 02:34N 47°40' W 003°30'7 2.2
2016-Sep-19 23:33N 47°44' W 003°22'30 7.5
2016-Sep-19 19:33N 47°14' W 003°25'3 3.4
2016-Sep-19 18:33N 47°11' W 003°23'6 3.1
2016-Sep-19 16:27N 47°05' W 003°19'6 0.5
2016-Sep-19 03:33N 46°59' W 003°15'4 3.7
2016-Sep-19 02:24N 46°59' W 003°21'3 0.4
2016-Sep-18 19:15N 46°60' W 003°18'0 0.0
2016-Sep-18 14:30N 46°60' W 003°17'1 0.4
2016-Sep-18 10:33N 46°59' W 003°16'44 5.5
2016-Sep-18 02:33N 47°43' W 003°22'1 0.0
2016-Sep-16 17:33N 47°44' W 003°22'5 2.7
2016-Sep-16 15:33N 47°40' W 003°28'2 0.2
2016-Sep-16 03:33N 47°40' W 003°31'7 7.1
2016-Sep-16 02:33N 47°43' W 003°22'2 0.8
2016-Sep-16 00:33N 47°42' W 003°22'11 5.5
2016-Sep-15 22:33N 47°34' W 003°34'3 3.4
2016-Sep-15 21:33N 47°32' W 003°30'3 3.0
2016-Sep-15 20:33N 47°30' W 003°27'7 0.5
2016-Sep-15 04:33N 47°23' W 003°32'7 7.0
2016-Sep-15 03:33N 47°30' W 003°27'15 7.2
2016-Sep-15 01:31N 47°44' W 003°22'13 4.3
2016-Sep-14 22:33N 47°31' W 003°24'9 9.1
2016-Sep-14 21:34N 47°22' W 003°28'6 0.4
2016-Sep-14 03:33N 47°29' W 003°30'6 1.2
2016-Sep-13 22:34N 47°25' W 003°22'18 9.1
2016-Sep-13 20:34N 47°07' W 003°23'  
Track history (hours):
 
Tides and Currents Weather Stations Pressure Air Temp Water Temp Dewpoint Dewpoint Depression Visibility Wind Speed Wind Dir Waves Ship Positions

F/V Cote D'ambre

Last reported at 2016-Sep-23 16:33 UTC. Time now 2016-Sep-25 14:03 UTC.
Position N 47°42' W 003°23'.

Length 16 m; draft 4 m.

Type: Fishing. MMSI: 227128800.

Date/timePositionNaut miles runAvg speedWind from/ knotsBaromVisibWave heightAir tempDewpointWater temp
2016-Sep-23 16:33N 47°42' W 003°23'9 8.5
2016-Sep-23 15:33N 47°37' W 003°34'18 8.9
2016-Sep-23 13:33N 47°22' W 003°47'5 0.7
2016-Sep-23 06:19N 47°18' W 003°52'1 0.8
2016-Sep-23 04:33N 47°19' W 003°50'4 3.7
2016-Sep-23 03:33N 47°15' W 003°50'35 2.3
2016-Sep-22 12:33N 47°44' W 003°22'0 0.0
2016-Sep-22 04:32N 47°44' W 003°22'0 0.0
2016-Sep-22 03:32N 47°44' W 003°22'4 1.3
2016-Sep-22 00:34N 47°40' W 003°22'7 6.9
2016-Sep-21 23:34N 47°33' W 003°25'8 7.5
2016-Sep-21 22:34N 47°29' W 003°34'14 1.0
2016-Sep-21 09:28N 47°31' W 003°54'1 0.9
2016-Sep-21 08:18N 47°30' W 003°54'19 4.0
2016-Sep-21 03:33N 47°40' W 003°29'6 5.7
2016-Sep-21 02:28N 47°44' W 003°22'26 2.2
2016-Sep-20 14:32N 47°31' W 003°55'2 1.5
2016-Sep-20 13:34N 47°30' W 003°55'1 0.2
2016-Sep-20 10:33N 47°30' W 003°55'3 1.4
2016-Sep-20 08:34N 47°31' W 003°52'3 2.5
2016-Sep-20 07:33N 47°30' W 003°55'20 4.0
2016-Sep-20 02:34N 47°40' W 003°30'7 2.2
2016-Sep-19 23:33N 47°44' W 003°22'30 7.5
2016-Sep-19 19:33N 47°14' W 003°25'3 3.4
2016-Sep-19 18:33N 47°11' W 003°23'6 3.1
2016-Sep-19 16:27N 47°05' W 003°19'6 0.5
2016-Sep-19 03:33N 46°59' W 003°15'4 3.7
2016-Sep-19 02:24N 46°59' W 003°21'3 0.4
2016-Sep-18 19:15N 46°60' W 003°18'0 0.0
2016-Sep-18 14:30N 46°60' W 003°17'1 0.4
2016-Sep-18 10:33N 46°59' W 003°16'44 5.5
2016-Sep-18 02:33N 47°43' W 003°22'1 0.0
2016-Sep-16 17:33N 47°44' W 003°22'5 2.7
2016-Sep-16 15:33N 47°40' W 003°28'2 0.2
2016-Sep-16 03:33N 47°40' W 003°31'7 7.1
2016-Sep-16 02:33N 47°43' W 003°22'2 0.8
2016-Sep-16 00:33N 47°42' W 003°22'11 5.5
2016-Sep-15 22:33N 47°34' W 003°34'3 3.4
2016-Sep-15 21:33N 47°32' W 003°30'3 3.0
2016-Sep-15 20:33N 47°30' W 003°27'7 0.5
2016-Sep-15 04:33N 47°23' W 003°32'7 7.0
2016-Sep-15 03:33N 47°30' W 003°27'15 7.2
2016-Sep-15 01:31N 47°44' W 003°22'13 4.3
2016-Sep-14 22:33N 47°31' W 003°24'9 9.1
2016-Sep-14 21:34N 47°22' W 003°28'6 0.4
2016-Sep-14 03:33N 47°29' W 003°30'6 1.2
2016-Sep-13 22:34N 47°25' W 003°22'18 9.1
2016-Sep-13 20:34N 47°07' W 003°23'  

Dump ship's entire track history